Terminal Aerodrome Forecast
Issued by NWS Salt Lake City, UT

Home | Current Version | Previous Version | Text Only | Print | Product List | Glossary On
Versions: 1 2 3 4 5 6 7 8 9 10 11 12 13 14
000
FTUS45 KSLC 192333
TAFCDC
TAF
KCDC 192333Z 2000/2024 19012KT P6SM FEW110
     FM200200 16007KT P6SM SKC
     FM201100 19012KT P6SM SKC
     FM201300 20018G26KT P6SM SKC
     FM201600 23020G34KT P6SM SCT200
     FM202200 27015G28KT P6SM SCT070 BKN130=

USA.gov is the U.S. government's official web portal to all federal, state and local government web resources and services.